Time;durP1;ratioP1;P1;durP2;ratioP2;P2;SDS_P1;SDS_P2;PMS_P1;PMS_P2;Temp;Humidity;BMP_temperature;BMP_pressure;BME280_temperature;BME280_humidity;BME280_pressure;Samples;Min_cycle;Max_cycle;Signal;HPM_P1;HPM_P2
2023/10/28 00:00:45;;;;;;;;;;;;;;;21.42;50.04;99315.50;4214584;28;19924;-56
2023/10/28 00:02:47;;;;;;;;;;;;;;;21.42;49.73;99315.50;4214351;28;20014;-56
2023/10/28 00:04:48;;;;;;;;;;;;;;;21.42;50.07;99315.50;4214351;28;19931;-56
2023/10/28 00:06:55;;;;;;;;;;;;;;;21.39;49.89;99314.00;4213996;28;19997;-56
2023/10/28 00:09:02;;;;;;;;;;;;;;;21.37;49.96;99318.66;4214368;28;19924;-56
2023/10/28 00:11:04;;;;;;;;;;;;;;;21.36;50.06;99312.47;4214360;28;19924;-54
2023/10/28 00:13:08;;;;;;;;;;;;;;;21.37;50.20;99305.28;4196465;28;19975;-56
2023/10/28 00:15:10;;;;;;;;;;;;;;;21.39;50.07;99308.66;4196520;28;20357;-55
2023/10/28 00:17:12;;;;;;;;;;;;;;;21.42;50.37;99299.47;4196454;28;20408;-56
2023/10/28 00:19:13;;;;;;;;;;;;;;;21.42;49.96;99308.31;4214342;28;20022;-56
2023/10/28 00:21:17;;;;;;;;;;;;;;;21.45;49.95;99297.31;4213987;28;19928;-56
2023/10/28 00:23:19;;;;;;;;;;;;;;;21.46;49.92;99301.66;4214189;28;19924;-54
2023/10/28 00:25:29;;;;;;;;;;;;;;;21.46;49.82;99307.00;4196334;28;20019;-56
2023/10/28 00:27:33;;;;;;;;;;;;;;;21.46;49.68;99308.84;4214222;28;19974;-56
2023/10/28 00:29:35;;;;;;;;;;;;;;;21.42;49.85;99302.97;4213890;28;19924;-56
2023/10/28 00:31:36;;;;;;;;;;;;;;;21.41;49.86;99295.97;4214202;28;20006;-56
2023/10/28 00:33:38;;;;;;;;;;;;;;;21.41;49.82;99292.44;4213979;28;19928;-56
2023/10/28 00:35:42;;;;;;;;;;;;;;;21.43;50.06;99293.13;4213890;28;20010;-54
2023/10/28 00:37:44;;;;;;;;;;;;;;;21.46;49.84;99282.09;4214349;28;20001;-56
2023/10/28 00:39:46;;;;;;;;;;;;;;;21.49;49.77;99285.28;4213700;28;20065;-56
2023/10/28 00:41:48;;;;;;;;;;;;;;;21.52;49.81;99287.66;4213987;28;19928;-54
2023/10/28 00:43:49;;;;;;;;;;;;;;;21.51;49.68;99283.28;4213896;28;20019;-56
2023/10/28 00:45:51;;;;;;;;;;;;;;;21.52;49.59;99278.78;4213774;28;19924;-56
2023/10/28 00:47:53;;;;;;;;;;;;;;;21.50;49.79;99280.78;4213565;28;20320;-55
2023/10/28 00:49:57;;;;;;;;;;;;;;;21.49;49.75;99274.56;4213456;28;19966;-55
2023/10/28 00:51:59;;;;;;;;;;;;;;;21.47;49.92;99270.38;4213795;28;19924;-56
2023/10/28 00:54:01;;;;;;;;;;;;;;;21.46;49.83;99269.56;4213963;28;19924;-56
2023/10/28 00:56:03;;;;;;;;;;;;;;;21.47;49.77;99273.91;4213637;28;20023;-52
2023/10/28 00:58:06;;;;;;;;;;;;;;;21.51;49.76;99269.09;4213709;28;19931;-55
2023/10/28 01:00:08;;;;;;;;;;;;;;;21.53;49.75;99259.03;4213785;28;20377;-56
2023/10/28 01:02:11;;;;;;;;;;;;;;;21.54;49.58;99261.59;4213382;28;20028;-56
2023/10/28 01:04:13;;;;;;;;;;;;;;;21.55;49.98;99262.41;4213509;28;20023;-56
2023/10/28 01:06:14;;;;;;;;;;;;;;;21.56;49.73;99258.72;4213429;28;19924;-56
2023/10/28 01:08:16;;;;;;;;;;;;;;;21.55;49.82;99260.56;4213636;28;19967;-56
2023/10/28 01:10:25;;;;;;;;;;;;;;;21.54;49.66;99258.91;4213562;28;19931;-56
2023/10/28 01:12:26;;;;;;;;;;;;;;;21.53;49.71;99267.94;4213695;28;20121;-52
2023/10/28 01:14:28;;;;;;;;;;;;;;;21.51;49.98;99255.72;4213613;28;19924;-56
2023/10/28 01:16:29;;;;;;;;;;;;;;;21.51;49.56;99253.88;4213592;28;20130;-56
2023/10/28 01:18:31;;;;;;;;;;;;;;;21.54;49.55;99256.22;4213374;28;20349;-55
2023/10/28 01:20:33;;;;;;;;;;;;;;;21.57;49.60;99247.06;4213256;28;19973;-56
2023/10/28 01:22:34;;;;;;;;;;;;;;;21.58;49.58;99253.25;4213323;28;19935;-56
2023/10/28 01:24:36;;;;;;;;;;;;;;;21.60;49.53;99257.44;4213766;28;19928;-55
2023/10/28 01:26:38;;;;;;;;;;;;;;;21.61;49.43;99259.09;4213195;28;19932;-57
2023/10/28 01:28:40;;;;;;;;;;;;;;;21.60;49.36;99245.91;4213658;28;19939;-56
2023/10/28 01:30:42;;;;;;;;;;;;;;;21.59;49.49;99246.91;4213352;28;19924;-54
2023/10/28 01:32:44;;;;;;;;;;;;;;;21.57;49.76;99238.19;4213341;28;19924;-56
2023/10/28 01:34:49;;;;;;;;;;;;;;;21.57;49.63;99241.72;4213046;28;20015;-57
2023/10/28 01:36:51;;;;;;;;;;;;;;;21.58;49.36;99239.88;4213441;28;19971;-56
2023/10/28 01:38:52;;;;;;;;;;;;;;;21.58;49.45;99240.72;4213448;28;19924;-56
2023/10/28 01:40:56;;;;;;;;;;;;;;;21.62;49.42;99235.88;4195471;28;19924;-56
2023/10/28 01:42:58;;;;;;;;;;;;;;;21.64;49.53;99237.41;4213294;28;20023;-56
2023/10/28 01:45:00;;;;;;;;;;;;;;;21.65;49.45;99241.75;4213416;28;20003;-55
2023/10/28 01:47:01;;;;;;;;;;;;;;;21.65;49.40;99239.06;4213294;28;20315;-56
2023/10/28 01:49:04;;;;;;;;;;;;;;;21.66;49.40;99247.94;4212862;28;19924;-56
2023/10/28 01:51:05;;;;;;;;;;;;;;;21.64;49.58;99245.41;4213347;28;19946;-55
2023/10/28 01:53:07;;;;;;;;;;;;;;;21.60;49.47;99238.69;4213426;28;20282;-53
2023/10/28 01:55:09;;;;;;;;;;;;;;;21.60;49.38;99245.91;4213168;28;19924;-52
2023/10/28 01:57:11;;;;;;;;;;;;;;;21.61;49.47;99247.59;4214621;28;20398;-54
2023/10/28 01:59:12;;;;;;;;;;;;;;;21.61;49.43;99248.41;4216544;28;19924;-54
2023/10/28 02:01:15;;;;;;;;;;;;;;;21.63;49.31;99246.41;4216565;28;19934;-54
2023/10/28 02:03:16;;;;;;;;;;;;;;;21.67;49.27;99252.28;4215597;28;19978;-54
2023/10/28 02:05:18;;;;;;;;;;;;;;;21.70;49.13;99241.25;4215999;28;19947;-54
2023/10/28 02:07:20;;;;;;;;;;;;;;;21.71;49.43;99232.22;4216176;28;19924;-55
2023/10/28 02:09:21;;;;;;;;;;;;;;;21.70;49.22;99234.06;4216001;28;19935;-55
2023/10/28 02:11:23;;;;;;;;;;;;;;;21.66;49.18;99237.22;4216340;28;19932;-54
2023/10/28 02:13:25;;;;;;;;;;;;;;;21.63;49.20;99233.03;4216193;28;19970;-55
2023/10/28 02:15:26;;;;;;;;;;;;;;;21.63;49.21;99227.69;4216047;28;19978;-55
2023/10/28 02:17:28;;;;;;;;;;;;;;;21.62;49.29;99233.22;4215717;28;19931;-55
2023/10/28 02:19:31;;;;;;;;;;;;;;;21.63;49.40;99224.16;4216152;28;19987;-56
2023/10/28 02:21:32;;;;;;;;;;;;;;;21.66;49.16;99227.34;4216207;28;19924;-55
2023/10/28 02:23:34;;;;;;;;;;;;;;;21.69;49.40;99223.53;4216285;28;20022;-55
2023/10/28 02:25:35;;;;;;;;;;;;;;;21.73;49.01;99230.22;4216022;28;20308;-54
2023/10/28 02:27:37;;;;;;;;;;;;;;;21.74;49.14;99223.88;4216109;28;20006;-55
2023/10/28 02:29:39;;;;;;;;;;;;;;;21.73;49.43;99216.84;4215952;28;19924;-56
2023/10/28 02:31:40;;;;;;;;;;;;;;;21.72;49.02;99211.66;4215747;28;19924;-55
2023/10/28 02:33:42;;;;;;;;;;;;;;;21.68;49.29;99209.31;4216012;28;20412;-55
2023/10/28 02:35:43;;;;;;;;;;;;;;;21.66;49.19;99205.94;4215916;28;19924;-55
2023/10/28 02:37:45;;;;;;;;;;;;;;;21.66;48.97;99213.16;4215917;28;19946;-56
2023/10/28 02:39:47;;;;;;;;;;;;;;;21.65;49.27;99212.31;4215825;28;19985;-52
2023/10/28 02:41:49;;;;;;;;;;;;;;;21.68;49.52;99211.16;4215679;28;19935;-55
2023/10/28 02:43:51;;;;;;;;;;;;;;;21.71;49.05;99202.78;4215973;28;20039;-55
2023/10/28 02:45:53;;;;;;;;;;;;;;;21.74;49.03;99197.13;4215120;28;19928;-56
2023/10/28 02:47:54;;;;;;;;;;;;;;;21.76;49.09;99195.09;4215630;28;20274;-55
2023/10/28 02:49:56;;;;;;;;;;;;;;;21.78;49.01;99189.59;4215739;28;20262;-53
2023/10/28 02:51:57;;;;;;;;;;;;;;;21.80;49.10;99195.59;4215386;28;19924;-55
2023/10/28 02:54:01;;;;;;;;;;;;;;;21.78;48.89;99194.94;4215706;28;19966;-55
2023/10/28 02:56:03;;;;;;;;;;;;;;;21.74;48.86;99196.25;4215473;28;20015;-55
2023/10/28 02:58:05;;;;;;;;;;;;;;;21.72;49.23;99190.25;4215401;28;19924;-55
2023/10/28 03:00:08;;;;;;;;;;;;;;;21.71;48.97;99184.06;4215447;28;19931;-55
2023/10/28 03:02:10;;;;;;;;;;;;;;;21.71;49.09;99200.09;4215164;28;19924;-55
2023/10/28 03:04:12;;;;;;;;;;;;;;;21.74;49.20;99186.41;4215400;28;19925;-54
2023/10/28 03:06:13;;;;;;;;;;;;;;;21.79;48.95;99181.41;4215548;28;19924;-54
2023/10/28 03:08:15;;;;;;;;;;;;;;;21.82;49.03;99194.47;4215665;28;19924;-55
2023/10/28 03:10:17;;;;;;;;;;;;;;;21.83;48.89;99193.44;4215544;28;20321;-55
2023/10/28 03:12:18;;;;;;;;;;;;;;;21.83;48.85;99198.78;4215407;28;19928;-55
2023/10/28 03:14:22;;;;;;;;;;;;;;;21.82;48.85;99198.97;4215291;28;19931;-55
2023/10/28 03:16:24;;;;;;;;;;;;;;;21.81;49.03;99194.59;4215028;28;20333;-56
2023/10/28 03:18:27;;;;;;;;;;;;;;;21.79;48.80;99207.34;4215290;28;19975;-55
2023/10/28 03:20:28;;;;;;;;;;;;;;;21.78;48.94;99211.81;4215239;28;19932;-54
2023/10/28 03:22:30;;;;;;;;;;;;;;;21.80;49.27;99212.50;4215136;28;19924;-55
2023/10/28 03:24:31;;;;;;;;;;;;;;;21.84;48.80;99218.38;4215099;28;20377;-55
2023/10/28 03:26:33;;;;;;;;;;;;;;;21.84;48.96;99215.69;4215208;28;20022;-54
2023/10/28 03:28:34;;;;;;;;;;;;;;;21.86;48.98;99216.38;4215109;28;19950;-54
2023/10/28 03:30:36;;;;;;;;;;;;;;;21.88;48.79;99218.88;4214637;28;19935;-52
2023/10/28 03:32:37;;;;;;;;;;;;;;;21.89;48.99;99229.41;4215062;28;19959;-55
2023/10/28 03:34:39;;;;;;;;;;;;;;;21.88;48.71;99225.06;4215001;28;19932;-55
2023/10/28 03:36:46;;;;;;;;;;;;;;;21.83;48.92;99228.22;4214665;28;20006;-55
2023/10/28 03:38:48;;;;;;;;;;;;;;;21.82;48.99;99215.00;4214910;28;19928;-56
2023/10/28 03:40:49;;;;;;;;;;;;;;;21.82;49.12;99218.53;4214611;28;20015;-55
2023/10/28 03:42:51;;;;;;;;;;;;;;;21.83;49.10;99219.38;4214720;28;19924;-55
2023/10/28 03:44:53;;;;;;;;;;;;;;;21.86;48.85;99221.72;4214842;28;19928;-56
2023/10/28 03:46:55;;;;;;;;;;;;;;;21.88;48.98;99214.34;4214528;28;20027;-56
2023/10/28 03:48:56;;;;;;;;;;;;;;;21.91;48.67;99221.22;4214541;28;19924;-54
2023/10/28 03:50:58;;;;;;;;;;;;;;;21.92;48.77;99225.56;4214708;28;20401;-55
2023/10/28 03:52:59;;;;;;;;;;;;;;;21.92;48.66;99231.78;4214490;28;19924;-56
2023/10/28 03:55:01;;;;;;;;;;;;;;;21.90;48.62;99236.44;4214602;28;19924;-55
2023/10/28 03:57:03;;;;;;;;;;;;;;;21.89;49.04;99237.44;4214680;28;20355;-55
2023/10/28 03:59:04;;;;;;;;;;;;;;;21.89;48.77;99239.28;4214261;28;19924;-56
2023/10/28 04:01:06;;;;;;;;;;;;;;;21.89;49.06;99231.28;4214372;28;20025;-54
2023/10/28 04:03:08;;;;;;;;;;;;;;;21.88;48.48;99249.16;4214492;28;19924;-56
2023/10/28 04:05:09;;;;;;;;;;;;;;;21.90;48.78;99241.81;4214460;28;19924;-55
2023/10/28 04:07:11;;;;;;;;;;;;;;;21.92;49.00;99234.44;4214542;28;19989;-55
2023/10/28 04:09:16;;;;;;;;;;;;;;;21.92;48.96;99245.16;4214516;28;20381;-55
2023/10/28 04:11:17;;;;;;;;;;;;;;;21.94;48.59;99245.81;4214412;28;19955;-55
2023/10/28 04:13:19;;;;;;;;;;;;;;;21.97;48.38;99255.34;4213973;28;20026;-56
2023/10/28 04:15:21;;;;;;;;;;;;;;;21.94;48.31;99259.19;4214191;28;19970;-56
2023/10/28 04:17:24;;;;;;;;;;;;;;;21.93;48.33;99254.00;4213954;28;19939;-56
2023/10/28 04:19:26;;;;;;;;;;;;;;;21.92;48.30;99257.69;4213788;28;19993;-54
2023/10/28 04:21:29;;;;;;;;;;;;;;;21.92;48.60;99257.69;4214297;28;19974;-54
2023/10/28 04:23:30;;;;;;;;;;;;;;;21.89;48.75;99266.88;4213522;28;20011;-55
2023/10/28 04:25:32;;;;;;;;;;;;;;;21.91;48.63;99267.56;4214240;28;19931;-56
2023/10/28 04:27:34;;;;;;;;;;;;;;;21.96;48.72;99270.59;4213854;28;19928;-55
2023/10/28 04:29:35;;;;;;;;;;;;;;;21.98;48.46;99265.91;4214280;28;20011;-55
2023/10/28 04:31:37;;;;;;;;;;;;;;;22.00;48.50;99263.06;4214195;28;20025;-56
2023/10/28 04:33:38;;;;;;;;;;;;;;;22.01;48.49;99273.59;4213920;28;20022;-55
2023/10/28 04:35:43;;;;;;;;;;;;;;;22.01;48.51;99267.41;4214047;28;20023;-55
2023/10/28 04:37:44;;;;;;;;;;;;;;;21.99;48.29;99264.91;4213919;28;20446;-56
2023/10/28 04:39:46;;;;;;;;;;;;;;;21.98;48.51;99270.41;4213956;28;20407;-56
2023/10/28 04:41:48;;;;;;;;;;;;;;;21.95;48.33;99268.91;4213854;28;20049;-55
2023/10/28 04:43:49;;;;;;;;;;;;;;;21.95;48.50;99268.09;4213856;28;19930;-56
2023/10/28 04:45:55;;;;;;;;;;;;;;;21.98;48.42;99278.44;4213923;28;19931;-56
2023/10/28 04:48:02;;;;;;;;;;;;;;;22.00;48.42;99273.78;4214016;28;19924;-55
2023/10/28 04:50:09;;;;;;;;;;;;;;;22.02;48.36;99272.59;4213591;28;20011;-56
2023/10/28 04:52:10;;;;;;;;;;;;;;;22.05;48.54;99275.97;4195938;28;20026;-55
2023/10/28 04:54:12;;;;;;;;;;;;;;;22.05;48.15;99270.59;4213941;28;19974;-55
2023/10/28 04:56:14;;;;;;;;;;;;;;;22.05;48.78;99273.28;4213811;28;19928;-55
2023/10/28 04:58:21;;;;;;;;;;;;;;;22.05;48.34;99257.22;4196630;28;20262;-55
2023/10/28 05:00:23;;;;;;;;;;;;;;;22.01;48.23;99268.25;4195824;28;19931;-55
2023/10/28 05:02:24;;;;;;;;;;;;;;;22.00;48.56;99263.88;4214013;28;19969;-55
2023/10/28 05:04:27;;;;;;;;;;;;;;;22.00;48.16;99263.88;4213658;28;19924;-55
2023/10/28 05:06:29;;;;;;;;;;;;;;;22.01;48.66;99260.22;4213616;28;20407;-55
2023/10/28 05:08:30;;;;;;;;;;;;;;;22.02;48.65;99261.06;4213911;28;19924;-57
2023/10/28 05:10:32;;;;;;;;;;;;;;;22.05;48.46;99260.72;4213651;28;20305;-56
2023/10/28 05:12:34;;;;;;;;;;;;;;;22.07;48.18;99266.75;4213231;28;20131;-55
2023/10/28 05:14:35;;;;;;;;;;;;;;;22.08;48.13;99260.41;4213948;28;20022;-54
2023/10/28 05:16:37;;;;;;;;;;;;;;;22.08;48.30;99273.78;4213610;28;20011;-55
2023/10/28 05:18:38;;;;;;;;;;;;;;;22.09;48.11;99274.63;4213334;28;19927;-56
2023/10/28 05:20:40;;;;;;;;;;;;;;;22.07;48.20;99271.28;4213254;28;20002;-56
2023/10/28 05:22:41;;;;;;;;;;;;;;;22.06;48.20;99267.75;4213630;28;19964;-54
2023/10/28 05:24:48;;;;;;;;;;;;;;;22.04;48.41;99268.94;4213569;28;19975;-56
2023/10/28 05:26:49;;;;;;;;;;;;;;;22.05;48.19;99270.59;4213251;28;19930;-55
2023/10/28 05:28:53;;;;;;;;;;;;;;;22.05;48.25;99268.75;4213519;28;20357;-56
2023/10/28 05:30:55;;;;;;;;;;;;;;;22.05;48.10;99271.44;4213597;28;19928;-55
2023/10/28 05:32:57;;;;;;;;;;;;;;;22.07;48.38;99268.63;4198471;28;19955;-54
2023/10/28 05:34:58;;;;;;;;;;;;;;;22.11;48.12;99264.59;4216820;28;19970;-55
2023/10/28 05:37:00;;;;;;;;;;;;;;;22.09;48.37;99270.13;4216945;28;19931;-56
2023/10/28 05:39:03;;;;;;;;;;;;;;;22.09;48.18;99270.13;4216793;28;19924;-55
2023/10/28 05:41:04;;;;;;;;;;;;;;;22.08;48.05;99276.47;4216365;28;19935;-53
2023/10/28 05:43:06;;;;;;;;;;;;;;;22.06;48.00;99277.63;4216831;28;19924;-54
2023/10/28 05:45:08;;;;;;;;;;;;;;;22.04;48.06;99280.47;4216848;28;20373;-55
2023/10/28 05:47:11;;;;;;;;;;;;;;;22.01;48.14;99278.94;4216730;28;19948;-55
2023/10/28 05:49:14;;;;;;;;;;;;;;;22.04;48.38;99276.97;4215625;28;20006;-56
2023/10/28 05:51:16;;;;;;;;;;;;;;;22.05;48.15;99273.28;4197448;28;19974;-55
2023/10/28 05:53:17;;;;;;;;;;;;;;;22.09;48.18;99277.28;4215368;28;19971;-55
2023/10/28 05:55:19;;;;;;;;;;;;;;;22.11;48.36;99284.16;4215374;28;19977;-53
2023/10/28 05:57:21;;;;;;;;;;;;;;;22.12;48.38;99288.50;4215242;28;20348;-54
2023/10/28 05:59:22;;;;;;;;;;;;;;;22.14;48.02;99299.91;4215238;28;20304;-55
2023/10/28 06:01:26;;;;;;;;;;;;;;;22.13;48.02;99295.53;4215356;28;19967;-51
2023/10/28 06:03:28;;;;;;;;;;;;;;;22.11;48.02;99294.88;4215439;28;19946;-50
2023/10/28 06:05:30;;;;;;;;;;;;;;;22.09;48.05;99290.69;4215436;28;19967;-52
2023/10/28 06:07:31;;;;;;;;;;;;;;;22.07;48.21;99296.22;4215395;28;19924;-52
2023/10/28 06:09:33;;;;;;;;;;;;;;;22.10;48.19;99292.38;4215014;28;20001;-53
2023/10/28 06:11:35;;;;;;;;;;;;;;;22.11;48.34;99294.88;4196568;28;20184;-56
2023/10/28 06:13:37;;;;;;;;;;;;;;;22.14;48.17;99291.88;4215220;28;20004;-56
2023/10/28 06:15:41;;;;;;;;;;;;;;;22.16;48.12;99292.56;4215341;28;20023;-55
2023/10/28 06:17:45;;;;;;;;;;;;;;;22.17;47.94;99296.88;4215028;28;20014;-54
2023/10/28 06:19:46;;;;;;;;;;;;;;;22.18;47.93;99295.88;4215139;28;19931;-56
2023/10/28 06:21:49;;;;;;;;;;;;;;;22.20;47.91;99294.88;4215210;28;20300;-54
2023/10/28 06:23:51;;;;;;;;;;;;;;;22.20;48.17;99297.56;4215053;28;19924;-56
2023/10/28 06:25:52;;;;;;;;;;;;;;;22.16;48.25;99295.22;4215186;28;19958;-55
2023/10/28 06:27:54;;;;;;;;;;;;;;;22.12;48.02;99288.50;4215049;28;19928;-55
2023/10/28 06:29:58;;;;;;;;;;;;;;;22.15;47.90;99300.72;4215215;28;19924;-55
2023/10/28 06:32:00;;;;;;;;;;;;;;;22.08;48.30;99281.81;4215148;28;19959;-54
2023/10/28 06:34:05;;;;;;;;;;;;;;;22.17;47.92;99294.19;4197548;28;20135;-55
2023/10/28 06:36:08;;;;;;;;;;;;;;;22.19;47.93;99302.09;4215156;28;20345;-55
2023/10/28 06:38:10;;;;;;;;;;;;;;;22.20;47.97;99302.91;4214991;28;19924;-54
2023/10/28 06:40:12;;;;;;;;;;;;;;;22.20;47.86;99302.91;4215046;28;19943;-56
2023/10/28 06:42:13;;;;;;;;;;;;;;;22.20;47.92;99313.63;4214803;28;19955;-55
2023/10/28 06:44:15;;;;;;;;;;;;;;;22.15;47.84;99308.75;4215046;28;19928;-55
2023/10/28 06:46:17;;;;;;;;;;;;;;;22.09;47.95;99315.63;4196725;28;19962;-56
2023/10/28 06:48:18;;;;;;;;;;;;;;;22.07;47.90;99320.31;4151812;28;1776864;-55
2023/10/28 06:50:20;;;;;;;;;;;;;;;22.05;48.10;99324.97;4215706;28;19924;-55
2023/10/28 06:52:24;;;;;;;;;;;;;;;22.07;48.11;99319.47;4215390;28;19928;-55
2023/10/28 06:54:26;;;;;;;;;;;;;;;22.08;48.27;99311.28;4215926;28;20316;-55
2023/10/28 06:56:27;;;;;;;;;;;;;;;22.13;48.41;99318.81;4215497;28;19931;-55
2023/10/28 06:58:29;;;;;;;;;;;;;;;22.13;47.90;99324.19;4215860;28;20376;-55
2023/10/28 07:00:31;;;;;;;;;;;;;;;22.11;47.78;99316.28;4215733;28;19962;-56
2023/10/28 07:02:33;;;;;;;;;;;;;;;22.12;48.34;99325.19;4215322;28;19928;-56
2023/10/28 07:04:35;;;;;;;;;;;;;;;22.10;48.27;99324.50;4215465;28;20266;-55
2023/10/28 07:06:36;;;;;;;;;;;;;;;22.07;48.39;99325.66;4215330;28;19928;-54
2023/10/28 07:08:38;;;;;;;;;;;;;;;22.06;48.08;99320.47;4215202;28;19943;-56
2023/10/28 07:10:39;;;;;;;;;;;;;;;22.04;48.09;99323.28;4215506;28;20320;-56
2023/10/28 07:12:41;;;;;;;;;;;;;;;22.06;48.42;99328.50;4215322;28;19935;-56
2023/10/28 07:14:43;;;;;;;;;;;;;;;22.08;48.11;99329.16;4215050;28;19924;-56
2023/10/28 07:16:44;;;;;;;;;;;;;;;22.09;48.30;99328.16;4215081;28;19932;-56
2023/10/28 07:18:46;;;;;;;;;;;;;;;22.12;48.19;99328.69;4215066;28;20291;-55
2023/10/28 07:20:48;;;;;;;;;;;;;;;22.12;48.00;99327.84;4215083;28;20410;-56
2023/10/28 07:22:49;;;;;;;;;;;;;;;22.13;48.18;99337.56;4215042;28;19924;-56
2023/10/28 07:24:53;;;;;;;;;;;;;;;22.11;47.88;99340.38;4214910;28;20393;-56
2023/10/28 07:26:54;;;;;;;;;;;;;;;22.09;47.88;99346.91;4197318;28;19931;-55
2023/10/28 07:28:57;;;;;;;;;;;;;;;22.06;47.94;99342.72;4215117;28;20385;-56
2023/10/28 07:30:59;;;;;;;;;;;;;;;22.08;47.98;99346.09;4214900;28;19977;-55
2023/10/28 07:33:01;;;;;;;;;;;;;;;22.12;48.13;99344.75;4215021;28;19924;-57
2023/10/28 07:35:05;;;;;;;;;;;;;;;22.17;47.96;99349.63;4214916;28;20369;-55
2023/10/28 07:37:08;;;;;;;;;;;;;;;22.20;47.83;99365.38;4196638;28;19931;-56
2023/10/28 07:39:09;;;;;;;;;;;;;;;22.21;47.85;99360.84;4214963;28;19924;-55
2023/10/28 07:41:11;;;;;;;;;;;;;;;22.20;47.82;99360.00;4214950;28;20019;-56
2023/10/28 07:43:14;;;;;;;;;;;;;;;22.20;47.79;99370.72;4214730;28;19930;-55
2023/10/28 07:45:16;;;;;;;;;;;;;;;22.18;47.93;99368.19;4214883;28;20338;-56
2023/10/28 07:47:17;;;;;;;;;;;;;;;22.16;47.69;99375.56;4214793;28;20316;-55
2023/10/28 07:49:19;;;;;;;;;;;;;;;22.14;47.77;99382.91;4214258;28;19928;-55
2023/10/28 07:51:21;;;;;;;;;;;;;;;22.16;48.00;99372.03;4214412;28;19946;-56
2023/10/28 07:53:22;;;;;;;;;;;;;;;22.18;47.89;99372.72;4214594;28;19977;-56
2023/10/28 07:55:24;;;;;;;;;;;;;;;22.23;47.67;99377.59;4213993;28;19924;-56
2023/10/28 07:57:26;;;;;;;;;;;;;;;22.26;47.77;99388.81;4214608;28;20336;-55
2023/10/28 07:59:28;;;;;;;;;;;;;;;22.27;47.50;99384.28;4214147;28;19931;-56
2023/10/28 08:01:30;;;;;;;;;;;;;;;22.25;47.92;99387.13;4214642;28;19931;-56
2023/10/28 08:03:33;;;;;;;;;;;;;;;22.24;47.65;99392.66;4214600;28;20082;-54
2023/10/28 08:05:35;;;;;;;;;;;;;;;22.22;47.62;99400.00;4213810;28;20447;-54
2023/10/28 08:07:37;;;;;;;;;;;;;;;22.20;47.73;99394.81;4214488;28;20386;-56
2023/10/28 08:09:38;;;;;;;;;;;;;;;22.20;47.62;99402.84;4214103;28;19957;-57
2023/10/28 08:11:40;;;;;;;;;;;;;;;22.21;47.90;99393.78;4213735;28;20061;-58
2023/10/28 08:13:42;;;;;;;;;;;;;;;22.26;47.53;99398.66;4214181;28;20400;-56
2023/10/28 08:15:44;;;;;;;;;;;;;;;22.28;47.19;99394.81;4214161;28;20301;-56
2023/10/28 08:17:46;;;;;;;;;;;;;;;22.29;47.27;99403.72;4213954;28;19928;-56
2023/10/28 08:19:47;;;;;;;;;;;;;;;22.21;47.31;99399.16;4213829;28;20405;-57
2023/10/28 08:21:50;;;;;;;;;;;;;;;22.20;47.43;99402.00;4214246;28;19931;-57
2023/10/28 08:23:51;;;;;;;;;;;;;;;22.27;47.36;99405.72;4213954;28;19963;-57
2023/10/28 08:25:53;;;;;;;;;;;;;;;22.28;47.03;99397.50;4213550;28;19934;-57
2023/10/28 08:27:55;;;;;;;;;;;;;;;22.31;46.71;99396.38;4201193;28;19924;-57
2023/10/28 08:29:56;;;;;;;;;;;;;;;22.32;46.85;99390.84;4198100;28;19924;-57
2023/10/28 08:31:58;;;;;;;;;;;;;;;22.33;46.61;99394.34;4203137;28;20018;-61
2023/10/28 08:34:01;;;;;;;;;;;;;;;22.34;46.62;99391.50;4204092;28;20016;-56
2023/10/28 08:36:03;;;;;;;;;;;;;;;22.39;46.57;99387.53;4209994;28;20446;-57
2023/10/28 08:38:05;;;;;;;;;;;;;;;22.42;46.35;99390.72;4213734;28;19924;-57
2023/10/28 08:40:12;;;;;;;;;;;;;;;22.42;46.20;99385.38;4197178;28;20312;-56
2023/10/28 08:42:13;;;;;;;;;;;;;;;22.44;46.17;99393.22;4197083;28;19924;-57
2023/10/28 08:44:17;;;;;;;;;;;;;;;22.44;46.00;99383.38;4193886;28;19924;-56
2023/10/28 08:46:19;;;;;;;;;;;;;;;22.43;46.32;99376.31;4208112;28;19924;-56
2023/10/28 08:48:24;;;;;;;;;;;;;;;22.41;46.23;99364.09;4203820;28;19935;-57
2023/10/28 08:50:32;;;;;;;;;;;;;;;22.36;46.04;99345.81;4213609;28;20030;-56
2023/10/28 08:52:37;;;;;;;;;;;;;;;22.42;45.98;99358.56;4213612;28;20480;-55
2023/10/28 08:54:39;;;;;;;;;;;;;;;22.46;45.91;99361.75;4213337;28;20069;-56
2023/10/28 08:56:43;;;;;;;;;;;;;;;22.47;46.00;99358.09;4213209;28;19936;-55
2023/10/28 08:58:48;;;;;;;;;;;;;;;22.52;45.98;99352.19;4213618;28;20337;-55
2023/10/28 09:00:50;;;;;;;;;;;;;;;22.54;45.82;99339.50;4213289;28;20023;-53
2023/10/28 09:02:58;;;;;;;;;;;;;;;22.55;45.96;99341.16;4213323;28;19981;-53
2023/10/28 09:05:00;;;;;;;;;;;;;;;22.55;46.10;99343.84;4213508;28;19946;-55
2023/10/28 09:07:04;;;;;;;;;;;;;;;22.49;46.23;99340.84;4213216;28;19930;-55
2023/10/28 09:09:14;;;;;;;;;;;;;;;22.51;46.16;99323.75;4213411;28;19925;-51
2023/10/28 09:11:17;;;;;;;;;;;;;;;22.52;45.92;99338.81;4213388;28;19931;-55
2023/10/28 09:13:18;;;;;;;;;;;;;;;22.53;46.09;99335.13;4213293;28;19993;-55
2023/10/28 09:15:21;;;;;;;;;;;;;;;22.49;46.12;99340.84;4195523;28;20397;-51
2023/10/28 09:17:23;;;;;;;;;;;;;;;22.50;45.59;99322.91;4212973;28;20347;-53
2023/10/28 09:19:25;;;;;;;;;;;;;;;22.52;45.77;99325.41;4213468;28;20278;-54
2023/10/28 09:21:26;;;;;;;;;;;;;;;22.55;45.60;99335.81;4213275;28;19963;-49
2023/10/28 09:23:30;;;;;;;;;;;;;;;22.60;45.45;99330.78;4213039;28;19971;-51
2023/10/28 09:25:34;;;;;;;;;;;;;;;22.61;45.37;99330.63;4213203;28;20017;-53
2023/10/28 09:27:36;;;;;;;;;;;;;;;22.61;45.44;99327.97;4213284;28;19928;-53
2023/10/28 09:29:38;;;;;;;;;;;;;;;22.61;45.40;99322.59;4213253;28;19924;-51
2023/10/28 09:31:41;;;;;;;;;;;;;;;22.60;45.48;99328.09;4213339;28;20344;-54
2023/10/28 09:33:43;;;;;;;;;;;;;;;22.60;45.64;99328.09;4212946;28;20011;-54
2023/10/28 09:35:45;;;;;;;;;;;;;;;22.59;45.39;99326.41;4213524;28;19930;-54
2023/10/28 09:37:47;;;;;;;;;;;;;;;22.62;45.51;99328.78;4212915;28;19982;-54
2023/10/28 09:39:50;;;;;;;;;;;;;;;22.65;45.67;99331.13;4209104;28;20346;-50
2023/10/28 09:41:52;;;;;;;;;;;;;;;22.68;45.31;99327.28;4199245;28;20425;-52
2023/10/28 09:43:54;;;;;;;;;;;;;;;22.70;45.36;99331.47;4200274;28;20285;-51
2023/10/28 09:45:56;;;;;;;;;;;;;;;22.70;45.02;99326.09;4196148;28;19924;-57
2023/10/28 09:48:00;;;;;;;;;;;;;;;22.70;45.51;99318.06;4197168;28;19931;-54
2023/10/28 09:50:03;;;;;;;;;;;;;;;22.71;45.41;99330.47;4196068;28;19924;-53
2023/10/28 09:52:06;;;;;;;;;;;;;;;22.70;45.14;99326.09;4196205;28;20443;-54
2023/10/28 09:54:18;;;;;;;;;;;;;;;22.68;45.04;99321.94;4196312;28;20321;-52
2023/10/28 09:56:23;;;;;;;;;;;;;;;22.69;45.31;99319.06;4196452;28;19931;-53
2023/10/28 09:58:28;;;;;;;;;;;;;;;22.70;44.96;99310.03;4196241;28;20366;-56
2023/10/28 10:00:30;;;;;;;;;;;;;;;22.72;45.29;99310.69;4196245;28;19925;-53
2023/10/28 10:02:44;;;;;;;;;;;;;;;22.75;45.33;99309.53;4198395;28;20086;-51
2023/10/28 10:04:58;;;;;;;;;;;;;;;22.79;45.15;99314.34;4204496;28;20301;-54
2023/10/28 10:07:00;;;;;;;;;;;;;;;22.79;44.84;99316.22;4198486;28;19925;-51
2023/10/28 10:09:01;;;;;;;;;;;;;;;22.78;45.08;99318.06;4201864;28;19960;-55
2023/10/28 10:11:05;;;;;;;;;;;;;;;22.75;44.91;99315.72;4196386;28;20292;-55
2023/10/28 10:13:12;;;;;;;;;;;;;;;22.75;44.78;99317.56;4196274;28;19967;-56
2023/10/28 10:15:14;;;;;;;;;;;;;;;22.75;45.23;99326.44;4196342;28;19924;-53
2023/10/28 10:17:33;;;;;;;;;;;;;;;22.74;45.19;99332.78;4198022;28;19925;-55
2023/10/28 10:19:35;;;;;;;;;;;;;;;22.77;44.89;99332.47;4216242;28;20269;-54
2023/10/28 10:21:38;;;;;;;;;;;;;;;22.80;45.07;99326.75;4216063;28;19989;-54
2023/10/28 10:23:41;;;;;;;;;;;;;;;22.85;44.62;99346.88;4216159;28;20040;-53
2023/10/28 10:25:45;;;;;;;;;;;;;;;22.87;44.83;99352.88;4215860;28;20022;-52
2023/10/28 10:27:47;;;;;;;;;;;;;;;22.86;44.85;99356.59;4191607;28;19925;-50
2023/10/28 10:29:51;;;;;;;;;;;;;;;22.86;44.92;99367.31;4213981;28;20056;-52
2023/10/28 10:31:53;;;;;;;;;;;;;;;22.84;44.93;99377.38;4216027;28;20381;-54
2023/10/28 10:34:12;;;;;;;;;;;;;;;22.80;44.91;99374.19;4215850;28;20365;-54
2023/10/28 10:36:17;;;;;;;;;;;;;;;22.77;44.85;99385.22;4215652;28;19924;-56
2023/10/28 10:38:26;;;;;;;;;;;;;;;22.78;44.91;99398.47;4215525;28;19924;-55